Time;durP1;ratioP1;P1;durP2;ratioP2;P2;SDS_P1;SDS_P2;PMS_P1;PMS_P2;Temp;Humidity;BMP_temperature;BMP_pressure;BME280_temperature;BME280_humidity;BME280_pressure;Samples;Min_cycle;Max_cycle;Signal;HPM_P1;HPM_P2
2023/12/28 00:01:14;;;;;;;8.00;3.20;;;;;;;8.94;80.95;100612.97;5093025;28;20407;-83
2023/12/28 00:03:40;;;;;;;10.30;3.27;;;;;;;8.93;81.24;100611.19;5092914;28;20028;-84
2023/12/28 00:06:06;;;;;;;15.38;3.30;;;;;;;8.93;81.22;100598.97;5074450;28;20059;-84
2023/12/28 00:08:32;;;;;;;11.63;3.67;;;;;;;8.93;81.49;100600.69;5092810;28;20076;-84
2023/12/28 00:10:58;;;;;;;10.55;3.20;;;;;;;8.95;81.52;100588.44;5092867;28;20108;-83
2023/12/28 00:13:23;;;;;;;11.70;3.53;;;;;;;8.96;82.26;100580.59;5093142;28;20024;-83
2023/12/28 00:15:49;;;;;;;10.33;3.30;;;;;;;9.01;82.27;100578.88;5092593;28;20024;-83
2023/12/28 00:18:14;;;;;;;12.17;3.50;;;;;;;9.04;81.91;100578.00;5074546;28;20313;-84
2023/12/28 00:20:39;;;;;;;14.07;3.70;;;;;;;9.07;82.39;100567.53;5098608;28;20111;-84
2023/12/28 00:23:06;;;;;;;9.53;3.67;;;;;;;9.09;82.44;100570.16;5112819;28;20048;-84
2023/12/28 00:25:31;;;;;;;13.13;3.70;;;;;;;9.14;81.91;100578.94;5106168;28;20024;-84
2023/12/28 00:27:57;;;;;;;16.65;3.92;;;;;;;9.15;82.32;100576.34;5092507;28;20553;-84
2023/12/28 00:30:22;;;;;;;14.00;4.10;;;;;;;9.17;82.24;100587.75;5092442;28;20020;-85
2023/12/28 00:32:48;;;;;;;13.80;3.43;;;;;;;9.18;82.26;100589.50;5092800;28;20039;-84
2023/12/28 00:35:13;;;;;;;9.93;3.40;;;;;;;9.21;81.92;100598.28;5074272;28;20263;-83
2023/12/28 00:37:39;;;;;;;13.95;3.50;;;;;;;9.22;82.38;100598.28;5092380;28;20024;-83
2023/12/28 00:40:05;;;;;;;11.30;3.57;;;;;;;9.23;82.54;100599.16;5073893;28;20031;-84
2023/12/28 00:42:30;;;;;;;12.98;3.35;;;;;;;9.23;82.24;100600.06;5092240;28;20020;-82
2023/12/28 00:44:56;;;;;;;13.13;3.67;;;;;;;9.23;82.38;100604.41;5091635;28;20021;-83
2023/12/28 00:47:21;;;;;;;9.20;3.38;;;;;;;9.20;82.92;100594.78;5091958;28;20054;-85
2023/12/28 00:49:47;;;;;;;10.57;3.47;;;;;;;9.22;82.92;100587.78;5092198;28;20039;-84
2023/12/28 00:52:12;;;;;;;9.70;3.33;;;;;;;9.26;82.61;100583.41;5074087;28;20161;-85
2023/12/28 00:54:37;;;;;;;12.23;3.87;;;;;;;9.28;83.29;100584.28;5092049;28;20024;-84
2023/12/28 00:57:04;;;;;;;11.55;4.03;;;;;;;9.33;82.65;100570.31;5091903;28;20051;-85
2023/12/28 00:59:32;;;;;;;9.90;3.73;;;;;;;9.35;82.70;100567.72;5091673;28;20491;-83
2023/12/28 01:01:57;;;;;;;10.82;3.90;;;;;;;9.38;82.51;100578.25;5091545;28;20020;-84
2023/12/28 01:04:23;;;;;;;10.40;3.13;;;;;;;9.37;82.54;100573.84;5091707;28;20039;-85
2023/12/28 01:06:49;;;;;;;13.63;3.70;;;;;;;9.36;82.95;100585.25;5091960;28;20052;-83
2023/12/28 01:09:14;;;;;;;10.83;3.23;;;;;;;9.38;82.95;100582.59;5091833;28;20059;-84
2023/12/28 01:11:40;;;;;;;13.18;3.60;;;;;;;9.40;82.48;100586.13;5091819;28;20024;-84
2023/12/28 01:14:05;;;;;;;11.17;3.37;;;;;;;9.41;82.19;100596.66;5091393;28;20059;-84
2023/12/28 01:16:31;;;;;;;11.87;3.93;;;;;;;9.38;82.67;100599.25;5091735;28;20027;-84
2023/12/28 01:18:56;;;;;;;11.40;3.70;;;;;;;9.40;82.52;100607.13;5091526;28;20024;-85
2023/12/28 01:21:22;;;;;;;10.30;3.60;;;;;;;9.37;82.74;100608.03;5103361;28;20059;-85
2023/12/28 01:23:47;;;;;;;12.73;3.83;;;;;;;9.39;82.70;100610.63;5110647;28;20052;-84
2023/12/28 01:26:14;;;;;;;11.23;3.40;;;;;;;9.38;82.32;100611.50;5100311;28;20016;-83
2023/12/28 01:28:40;;;;;;;16.20;3.67;;;;;;;9.37;82.65;100608.03;5091076;28;20035;-86
2023/12/28 01:31:05;;;;;;;12.02;3.33;;;;;;;9.40;82.41;100607.13;5092077;28;20020;-85
2023/12/28 01:33:30;;;;;;;10.47;3.30;;;;;;;9.37;82.62;100596.63;5091481;28;20379;-84
2023/12/28 01:35:56;;;;;;;14.73;3.87;;;;;;;9.36;82.42;100601.00;5091325;28;20057;-83
2023/12/28 01:38:24;;;;;;;8.20;3.17;;;;;;;9.36;82.74;100600.13;5091527;28;20016;-85
2023/12/28 01:40:49;;;;;;;11.50;3.60;;;;;;;9.34;82.52;100602.75;5091308;28;20476;-85
2023/12/28 01:43:15;;;;;;;10.50;3.40;;;;;;;9.34;82.57;100613.25;5091112;28;20031;-83
2023/12/28 01:45:40;;;;;;;11.63;3.47;;;;;;;9.36;82.52;100606.25;5097374;28;20123;-85
2023/12/28 01:48:06;;;;;;;10.00;3.33;;;;;;;9.33;82.77;100601.84;5091752;28;20028;-84
2023/12/28 01:50:32;;;;;;;12.77;3.13;;;;;;;9.34;82.60;100598.34;5091247;28;20455;-85
2023/12/28 01:53:00;;;;;;;10.50;4.13;;;;;;;9.32;82.54;100593.97;5072908;28;20020;-85
2023/12/28 01:55:27;;;;;;;13.00;3.40;;;;;;;9.31;82.69;100593.09;5091111;28;20039;-85
2023/12/28 01:57:53;;;;;;;10.75;3.58;;;;;;;9.31;82.69;100600.97;5090544;28;20494;-84
2023/12/28 02:00:21;;;;;;;10.73;3.33;;;;;;;9.29;82.90;100593.97;5090261;28;20415;-83
2023/12/28 02:02:48;;;;;;;9.88;3.60;;;;;;;9.31;82.42;100593.09;5090901;28;20106;-85
2023/12/28 02:05:14;;;;;;;10.27;3.17;;;;;;;9.28;82.23;100598.31;5090677;28;20754;-85
2023/12/28 02:07:40;;;;;;;10.90;3.50;;;;;;;9.28;82.27;100594.81;5090283;28;20059;-85
2023/12/28 02:10:07;;;;;;;9.03;4.10;;;;;;;9.26;82.11;100600.06;5090937;28;20480;-84
2023/12/28 02:12:33;;;;;;;15.80;4.00;;;;;;;9.25;82.47;100602.66;5090765;28;20645;-84
2023/12/28 02:14:59;;;;;;;10.30;3.70;;;;;;;9.23;82.24;100601.78;5072049;28;20111;-84
2023/12/28 02:17:44;;;;;;;9.13;3.60;;;;;;;9.19;82.15;100604.38;5090851;28;20392;-85
2023/12/28 02:20:11;;;;;;;10.07;3.60;;;;;;;9.16;82.39;100612.25;5092169;28;20307;-85
2023/12/28 02:22:37;;;;;;;10.95;3.88;;;;;;;9.15;82.17;100615.75;5110435;28;20103;-85
2023/12/28 02:25:08;;;;;;;11.80;4.05;;;;;;;9.12;82.29;100613.09;5107929;28;20115;-85
2023/12/28 02:27:39;;;;;;;12.40;3.60;;;;;;;9.09;82.35;100599.94;5090148;28;20031;-84
2023/12/28 02:30:07;;;;;;;8.63;2.93;;;;;;;9.10;82.51;100604.34;5090116;28;20035;-85
2023/12/28 02:32:56;;;;;;;9.95;3.47;;;;;;;9.08;82.08;100606.06;5090242;28;20020;-83
2023/12/28 02:35:31;;;;;;;12.70;3.50;;;;;;;9.06;82.39;100607.81;5090468;28;20028;-86
2023/12/28 02:38:06;;;;;;;10.93;3.65;;;;;;;9.04;82.52;100596.38;5090221;28;20024;-85
2023/12/28 02:40:38;;;;;;;13.43;3.85;;;;;;;9.05;82.17;100592.91;5090339;28;20073;-84
2023/12/28 02:43:06;;;;;;;10.90;3.40;;;;;;;9.04;82.30;100599.00;5090082;28;20391;-85
2023/12/28 02:45:31;;;;;;;10.23;3.47;;;;;;;9.04;82.24;100591.13;5090039;28;20108;-84
2023/12/28 02:47:57;;;;;;;8.67;3.57;;;;;;;9.02;82.34;100590.25;5090120;28;20123;-84
2023/12/28 02:50:22;;;;;;;10.47;3.57;;;;;;;9.03;82.50;100581.50;5090108;28;20769;-84
2023/12/28 02:52:47;;;;;;;9.30;3.20;;;;;;;9.03;82.06;100592.00;5090015;28;20024;-85
2023/12/28 02:55:13;;;;;;;7.70;3.17;;;;;;;9.01;82.18;100580.59;5089960;28;20026;-85
2023/12/28 02:57:38;;;;;;;10.80;3.60;;;;;;;8.99;82.26;100569.22;5089948;28;20464;-84
2023/12/28 03:00:10;;;;;;;10.30;3.72;;;;;;;8.99;82.01;100566.59;5071309;28;20035;-85
2023/12/28 03:02:37;;;;;;;11.93;3.60;;;;;;;8.99;82.18;100570.09;5089883;28;20483;-85
2023/12/28 03:05:04;;;;;;;10.48;3.17;;;;;;;8.98;82.04;100573.59;5089987;28;20048;-84
2023/12/28 03:07:29;;;;;;;12.32;3.33;;;;;;;8.98;82.31;100570.97;5089591;28;20511;-84
2023/12/28 03:09:55;;;;;;;10.07;2.93;;;;;;;8.99;82.18;100574.47;5089917;28;20024;-84
2023/12/28 03:12:20;;;;;;;8.30;3.20;;;;;;;9.00;82.19;100560.47;5090051;28;20070;-84
2023/12/28 03:14:45;;;;;;;10.68;3.85;;;;;;;8.99;82.02;100567.47;5089641;28;20077;-84
2023/12/28 03:17:12;;;;;;;9.33;3.20;;;;;;;9.00;81.76;100563.09;5090002;28;20460;-85
2023/12/28 03:19:37;;;;;;;11.93;3.25;;;;;;;8.98;81.88;100549.97;5092574;28;20024;-85
2023/12/28 03:22:03;;;;;;;8.47;3.10;;;;;;;8.96;82.11;100548.19;5093125;28;20031;-85
2023/12/28 03:24:28;;;;;;;10.10;3.60;;;;;;;8.97;82.05;100555.19;5100379;28;20086;-83
2023/12/28 03:26:53;;;;;;;11.10;3.40;;;;;;;8.96;81.96;100554.31;5097132;28;20028;-82
2023/12/28 03:29:19;;;;;;;12.80;3.33;;;;;;;8.98;82.03;100563.09;5093606;28;20039;-85
2023/12/28 03:31:45;;;;;;;11.73;3.60;;;;;;;9.00;81.67;100566.59;5075651;28;20020;-83
2023/12/28 03:34:10;;;;;;;7.50;3.55;;;;;;;9.00;81.72;100560.47;5093960;28;20353;-84
2023/12/28 03:36:35;;;;;;;6.70;3.00;;;;;;;8.98;81.88;100551.69;5093903;28;20032;-83
2023/12/28 03:39:01;;;;;;;6.60;3.00;;;;;;;8.99;81.51;100558.69;5093656;28;20067;-83
2023/12/28 03:41:26;;;;;;;11.03;3.37;;;;;;;8.96;82.04;100551.69;5093807;28;20028;-83
2023/12/28 03:43:52;;;;;;;7.63;2.90;;;;;;;8.98;81.55;100549.06;5093274;28;20385;-83
2023/12/28 03:46:17;;;;;;;9.85;3.22;;;;;;;8.98;81.88;100551.69;5075016;28;20032;-83
2023/12/28 03:48:42;;;;;;;10.57;3.37;;;;;;;9.00;81.56;100560.47;5093423;28;20450;-83
2023/12/28 03:51:14;;;;;;;14.00;3.17;;;;;;;9.01;81.78;100559.59;5093266;28;20028;-83
2023/12/28 03:53:39;;;;;;;9.63;3.03;;;;;;;9.01;81.97;100552.59;5093385;28;20027;-83
2023/12/28 03:56:04;;;;;;;10.13;2.80;;;;;;;9.02;81.66;100550.84;5093403;28;20403;-84
2023/12/28 03:58:30;;;;;;;8.83;2.90;;;;;;;9.01;81.85;100552.59;5093103;28;20103;-84
2023/12/28 04:00:55;;;;;;;9.90;3.30;;;;;;;9.02;81.64;100546.47;5093166;28;20290;-84
2023/12/28 04:03:20;;;;;;;8.47;2.90;;;;;;;9.02;81.85;100549.09;5093413;28;20328;-83
2023/12/28 04:05:46;;;;;;;14.10;3.53;;;;;;;9.03;82.53;100539.47;5093168;28;20032;-82
2023/12/28 04:08:12;;;;;;;13.80;3.85;;;;;;;9.07;82.09;100549.16;5093311;28;20039;-84
2023/12/28 04:10:40;;;;;;;14.83;3.90;;;;;;;9.07;82.65;100551.78;5093671;28;20256;-85
2023/12/28 04:13:05;;;;;;;12.80;3.65;;;;;;;9.09;82.80;100554.41;5093369;28;20475;-85
2023/12/28 04:15:31;;;;;;;12.97;3.67;;;;;;;9.11;82.87;100550.03;5093030;28;20111;-84
2023/12/28 04:17:57;;;;;;;10.23;3.57;;;;;;;9.12;83.74;100544.78;5074872;28;20028;-85
2023/12/28 04:20:22;;;;;;;18.05;4.18;;;;;;;9.19;83.26;100533.44;5096419;28;20153;-83
2023/12/28 04:22:48;;;;;;;9.97;3.90;;;;;;;9.22;83.18;100529.06;5113602;28;20059;-84
2023/12/28 04:25:16;;;;;;;11.33;3.93;;;;;;;9.21;83.38;100532.56;5090117;28;20399;-85
2023/12/28 04:27:41;;;;;;;11.48;3.63;;;;;;;9.21;83.02;100522.97;5092873;28;20027;-86
2023/12/28 04:30:08;;;;;;;12.20;3.85;;;;;;;9.21;83.12;100530.84;5091984;28;20024;-85
2023/12/28 04:32:33;;;;;;;12.73;3.60;;;;;;;9.22;83.30;100529.06;5092883;28;20024;-83
2023/12/28 04:34:58;;;;;;;9.90;3.43;;;;;;;9.23;82.77;100515.06;5093218;28;20394;-85
2023/12/28 04:37:26;;;;;;;11.53;3.63;;;;;;;9.22;83.20;100513.31;5093195;28;20027;-85
2023/12/28 04:39:52;;;;;;;11.35;4.18;;;;;;;9.23;82.56;100515.97;5093526;28;20028;-84
2023/12/28 04:42:18;;;;;;;7.68;3.60;;;;;;;9.23;83.00;100518.59;5093616;28;20032;-85
2023/12/28 04:44:44;;;;;;;10.37;3.10;;;;;;;9.24;83.00;100516.81;5092816;28;20035;-84
2023/12/28 04:47:09;;;;;;;8.73;3.15;;;;;;;9.23;82.78;100515.97;5092994;28;20028;-82
2023/12/28 04:49:34;;;;;;;11.53;3.47;;;;;;;9.24;82.78;100506.31;5075743;28;20520;-84
2023/12/28 04:52:00;;;;;;;9.43;3.10;;;;;;;9.26;82.35;100505.47;5093216;28;20123;-85
2023/12/28 04:54:25;;;;;;;8.77;2.53;;;;;;;9.28;82.69;100508.06;5093298;28;20054;-83
2023/12/28 04:56:51;;;;;;;9.73;2.90;;;;;;;9.30;82.59;100504.59;5092796;28;20476;-83
2023/12/28 04:59:16;;;;;;;11.63;3.20;;;;;;;9.31;82.38;100508.13;5074570;28;20498;-85
2023/12/28 05:01:43;;;;;;;9.50;3.13;;;;;;;9.31;82.22;100511.63;5093284;28;20024;-83
2023/12/28 05:04:08;;;;;;;12.48;3.30;;;;;;;9.35;82.41;100520.41;5093167;28;20085;-85
2023/12/28 05:06:34;;;;;;;8.50;3.20;;;;;;;9.40;82.19;100523.03;5092898;28;20434;-85
2023/12/28 05:08:59;;;;;;;13.40;2.97;;;;;;;9.39;82.43;100522.16;5092614;28;20088;-85
2023/12/28 05:11:25;;;;;;;8.43;3.17;;;;;;;9.37;82.56;100523.91;5092882;28;20441;-82
2023/12/28 05:13:50;;;;;;;10.13;3.07;;;;;;;9.39;82.40;100522.16;5092512;28;20068;-85
2023/12/28 05:16:16;;;;;;;10.23;2.67;;;;;;;9.42;82.30;100537.09;5092305;28;20032;-84
2023/12/28 05:18:41;;;;;;;10.00;2.93;;;;;;;9.41;82.09;100530.94;5091911;28;20032;-85
2023/12/28 05:21:06;;;;;;;8.57;2.70;;;;;;;9.41;82.48;100536.19;5101537;28;20483;-85
2023/12/28 05:23:32;;;;;;;10.30;2.93;;;;;;;9.41;82.64;100530.06;5111649;28;20039;-85
2023/12/28 05:25:57;;;;;;;12.70;3.77;;;;;;;9.41;82.66;100533.56;5101051;28;20128;-85
2023/12/28 05:28:22;;;;;;;9.93;3.13;;;;;;;9.44;82.58;100530.94;5091552;28;20032;-83
2023/12/28 05:30:48;;;;;;;10.47;3.23;;;;;;;9.47;82.41;100519.59;5090983;28;20028;-84
2023/12/28 05:33:13;;;;;;;11.37;4.03;;;;;;;9.47;83.05;100522.22;5091649;28;20111;-84
2023/12/28 05:35:39;;;;;;;14.00;3.80;;;;;;;9.51;82.78;100531.88;5073008;28;20032;-85
2023/12/28 05:38:05;;;;;;;7.88;3.03;;;;;;;9.48;82.91;100524.81;5091287;28;20028;-84
2023/12/28 05:40:30;;;;;;;8.53;3.70;;;;;;;9.49;82.88;100523.09;5091003;28;20043;-83
2023/12/28 05:42:55;;;;;;;9.60;3.00;;;;;;;9.47;82.92;100528.34;5090074;28;20112;-83
2023/12/28 05:45:21;;;;;;;11.23;3.10;;;;;;;9.47;83.28;100530.97;5090391;28;20016;-83
2023/12/28 05:47:47;;;;;;;8.30;3.07;;;;;;;9.51;82.57;100531.88;5090623;28;20498;-86
2023/12/28 05:50:12;;;;;;;8.45;2.80;;;;;;;9.53;82.76;100521.38;5091149;28;20024;-83
2023/12/28 05:52:38;;;;;;;10.10;3.00;;;;;;;9.54;82.97;100531.00;5090951;28;20107;-83
2023/12/28 05:55:04;;;;;;;12.37;3.47;;;;;;;9.55;82.72;100527.50;5090775;28;20032;-84
2023/12/28 05:57:30;;;;;;;11.05;3.20;;;;;;;9.55;82.64;100538.03;5090984;28;20023;-83
2023/12/28 05:59:57;;;;;;;9.00;2.92;;;;;;;9.56;82.81;100534.53;5090161;28;20483;-85
2023/12/28 06:02:22;;;;;;;9.18;2.92;;;;;;;9.56;82.64;100540.66;5090790;28;20489;-84
2023/12/28 06:04:48;;;;;;;9.10;3.10;;;;;;;9.57;82.63;100549.44;5090641;28;20028;-85
2023/12/28 06:07:13;;;;;;;11.13;3.40;;;;;;;9.57;82.97;100552.06;5090543;28;20031;-84
2023/12/28 06:09:39;;;;;;;10.32;3.30;;;;;;;9.57;83.00;100552.06;5090732;28;20425;-84
2023/12/28 06:12:05;;;;;;;8.87;3.13;;;;;;;9.54;83.25;100550.28;5090485;28;20220;-84
2023/12/28 06:14:30;;;;;;;10.57;4.13;;;;;;;9.56;83.08;100545.91;5090149;28;20512;-83
2023/12/28 06:16:56;;;;;;;7.50;3.27;;;;;;;9.55;82.88;100548.53;5090902;28;20028;-83
2023/12/28 06:19:22;;;;;;;8.77;3.20;;;;;;;9.57;82.83;100554.69;5090415;28;20055;-84
2023/12/28 06:21:48;;;;;;;14.27;3.13;;;;;;;9.54;82.92;100552.03;5105793;28;20536;-85
2023/12/28 06:24:14;;;;;;;10.20;3.25;;;;;;;9.56;82.94;100555.56;5109148;28;20555;-85
2023/12/28 06:26:42;;;;;;;13.07;3.73;;;;;;;9.58;82.95;100559.06;5095441;28;20027;-85
2023/12/28 06:29:09;;;;;;;10.80;3.00;;;;;;;9.59;82.49;100559.06;5089991;28;20059;-84
2023/12/28 06:31:37;;;;;;;9.02;3.72;;;;;;;9.59;82.65;100561.69;5090245;28;20052;-83
2023/12/28 06:34:06;;;;;;;12.60;3.97;;;;;;;9.62;82.54;100556.44;5090173;28;20063;-83
2023/12/28 06:36:32;;;;;;;9.18;3.13;;;;;;;9.65;82.75;100566.09;5072278;28;20446;-83
2023/12/28 06:38:58;;;;;;;11.33;3.60;;;;;;;9.65;82.89;100558.22;5090067;28;20020;-83
2023/12/28 06:41:24;;;;;;;10.13;3.53;;;;;;;9.64;82.76;100551.19;5090263;28;20523;-83
2023/12/28 06:43:49;;;;;;;10.73;3.70;;;;;;;9.63;83.16;100552.06;5089535;28;20106;-83
2023/12/28 06:46:15;;;;;;;10.27;4.00;;;;;;;9.67;82.98;100545.94;5089626;28;20099;-84
2023/12/28 06:48:40;;;;;;;13.57;3.67;;;;;;;9.68;83.32;100533.69;5089813;28;20111;-84
2023/12/28 06:51:09;;;;;;;12.63;4.30;;;;;;;9.70;83.06;100537.22;5089945;28;20032;-84
2023/12/28 06:53:35;;;;;;;10.17;3.90;;;;;;;9.70;83.42;100539.84;5089741;28;20036;-84
2023/12/28 06:56:00;;;;;;;12.07;4.22;;;;;;;9.71;83.70;100538.97;5089926;28;20102;-83
2023/12/28 06:58:25;;;;;;;10.00;4.97;;;;;;;9.70;83.78;100534.59;5089511;28;20427;-82
2023/12/28 07:00:51;;;;;;;16.70;4.90;;;;;;;9.75;83.44;100528.44;5090047;28;20391;-84
2023/12/28 07:03:16;;;;;;;7.93;4.17;;;;;;;9.74;83.46;100534.56;5089619;28;20027;-83
2023/12/28 07:05:42;;;;;;;10.38;4.53;;;;;;;9.74;83.35;100531.94;5090016;28;20024;-83
2023/12/28 07:08:07;;;;;;;13.20;4.90;;;;;;;9.75;83.35;100531.06;5089546;28;20467;-83
2023/12/28 07:10:33;;;;;;;13.27;4.87;;;;;;;9.75;83.13;100535.47;5089339;28;20036;-83
2023/12/28 07:12:58;;;;;;;9.13;4.10;;;;;;;9.76;83.54;100548.59;5090020;28;20035;-83
2023/12/28 07:15:25;;;;;;;12.27;4.40;;;;;;;9.74;83.59;100547.72;5089500;28;20055;-83
2023/12/28 07:17:50;;;;;;;12.55;4.60;;;;;;;9.73;83.71;100548.59;5089672;28;20188;-84
2023/12/28 07:20:16;;;;;;;9.00;4.40;;;;;;;9.73;83.82;100545.09;5092095;28;20256;-83
2023/12/28 07:22:41;;;;;;;11.63;4.53;;;;;;;9.76;83.81;100543.34;5109580;28;20072;-84
2023/12/28 07:25:07;;;;;;;11.55;4.47;;;;;;;9.79;84.01;100541.63;5106219;28;20399;-82
2023/12/28 07:27:34;;;;;;;11.45;4.50;;;;;;;9.83;83.45;100543.38;5089385;28;20074;-83
2023/12/28 07:30:00;;;;;;;11.85;4.45;;;;;;;9.83;83.67;100548.66;5089345;28;20028;-84
2023/12/28 07:32:28;;;;;;;10.73;4.77;;;;;;;9.84;83.75;100539.88;5089643;28;20115;-83
2023/12/28 07:34:53;;;;;;;10.20;4.47;;;;;;;9.88;83.72;100549.53;5089478;28;20035;-83
2023/12/28 07:37:19;;;;;;;9.43;4.03;;;;;;;9.85;83.75;100552.16;5089416;28;20032;-83
2023/12/28 07:39:44;;;;;;;13.70;4.55;;;;;;;9.85;83.56;100554.78;5089333;28;20059;-83
2023/12/28 07:42:10;;;;;;;14.90;4.20;;;;;;;9.84;83.64;100563.56;5089334;28;20058;-84
2023/12/28 07:44:35;;;;;;;12.47;5.53;;;;;;;9.89;83.74;100546.94;5089300;28;20027;-83
2023/12/28 07:47:00;;;;;;;11.47;4.83;;;;;;;9.91;83.75;100549.53;5089373;28;20056;-84
2023/12/28 07:49:26;;;;;;;12.00;5.18;;;;;;;9.91;83.44;100557.44;5089321;28;20039;-84
2023/12/28 07:51:51;;;;;;;12.17;4.57;;;;;;;9.91;83.75;100560.06;5089404;28;20112;-83
2023/12/28 07:54:17;;;;;;;10.23;4.50;;;;;;;9.93;83.86;100566.22;5089806;28;20051;-83
2023/12/28 07:56:42;;;;;;;12.63;5.03;;;;;;;9.93;83.33;100571.47;5070998;28;20024;-84
2023/12/28 07:59:09;;;;;;;10.95;4.75;;;;;;;9.93;83.50;100570.63;5071142;28;20032;-84
2023/12/28 08:01:34;;;;;;;12.27;4.53;;;;;;;9.93;83.35;100582.00;5089317;28;20040;-85
2023/12/28 08:04:01;;;;;;;10.43;4.55;;;;;;;9.93;83.48;100583.75;5088936;28;20027;-83
2023/12/28 08:06:29;;;;;;;11.07;4.15;;;;;;;9.92;83.48;100580.25;5093243;28;20115;-83
2023/12/28 08:08:54;;;;;;;10.57;4.23;;;;;;;9.93;83.17;100582.00;5093107;28;20028;-83
2023/12/28 08:11:20;;;;;;;11.63;4.47;;;;;;;9.94;83.13;100573.22;5092900;28;20503;-83
2023/12/28 08:13:45;;;;;;;10.60;4.43;;;;;;;9.94;83.13;100575.84;5092715;28;20123;-83
2023/12/28 08:16:10;;;;;;;10.87;4.20;;;;;;;9.94;83.25;100575.84;5093257;28;20456;-83
2023/12/28 08:18:36;;;;;;;12.87;4.17;;;;;;;9.95;83.38;100564.47;5092897;28;20020;-83
2023/12/28 08:21:01;;;;;;;12.13;4.70;;;;;;;9.98;83.58;100559.22;5101500;28;20081;-84
2023/12/28 08:23:26;;;;;;;12.00;4.53;;;;;;;9.98;83.47;100568.88;5112962;28;20292;-82
2023/12/28 08:25:52;;;;;;;14.73;4.53;;;;;;;10.02;83.29;100565.38;5103065;28;20282;-83
2023/12/28 08:28:17;;;;;;;15.33;4.00;;;;;;;10.02;83.37;100574.16;5092489;28;20032;-83
2023/12/28 08:30:43;;;;;;;14.80;4.40;;;;;;;10.08;82.73;100585.56;5092442;28;20080;-84
2023/12/28 08:33:08;;;;;;;9.25;4.43;;;;;;;10.08;82.58;100585.56;5092478;28;20043;-82
2023/12/28 08:35:33;;;;;;;15.60;4.50;;;;;;;10.10;82.96;100584.69;5093197;28;20509;-84
2023/12/28 08:37:59;;;;;;;12.27;4.93;;;;;;;10.10;82.43;100589.94;5092529;28;20067;-82
2023/12/28 08:40:25;;;;;;;10.07;4.20;;;;;;;10.11;82.51;100590.84;5092476;28;20024;-84
2023/12/28 08:42:50;;;;;;;10.68;4.05;;;;;;;10.12;82.65;100588.19;5092812;28;20376;-83
2023/12/28 08:45:16;;;;;;;12.15;4.50;;;;;;;10.12;82.31;100592.59;5091956;28;20193;-83
2023/12/28 08:47:41;;;;;;;8.73;3.13;;;;;;;10.10;82.52;100597.84;5092138;28;20035;-83
2023/12/28 08:50:07;;;;;;;8.67;3.80;;;;;;;10.14;82.55;100596.09;5092407;28;20369;-83
2023/12/28 08:52:33;;;;;;;12.43;4.13;;;;;;;10.18;82.14;100608.38;5092195;28;20031;-83
2023/12/28 08:54:59;;;;;;;14.13;4.97;;;;;;;10.15;82.37;100611.91;5092444;28;20628;-84
2023/12/28 08:57:24;;;;;;;11.23;4.85;;;;;;;10.17;82.65;100606.63;5092470;28;20449;-82
2023/12/28 08:59:50;;;;;;;13.60;5.10;;;;;;;10.20;82.52;100611.91;5091715;28;20119;-83
2023/12/28 09:02:15;;;;;;;11.60;4.00;;;;;;;10.19;82.48;100612.78;5092054;28;20024;-82
2023/12/28 09:04:40;;;;;;;11.37;4.27;;;;;;;10.24;82.63;100610.16;5091796;28;20384;-85
2023/12/28 09:07:06;;;;;;;15.57;4.80;;;;;;;10.24;82.45;100602.28;5091833;28;20028;-83
2023/12/28 09:09:31;;;;;;;11.47;4.07;;;;;;;10.25;82.30;100620.72;5091734;28;20289;-82
2023/12/28 09:11:56;;;;;;;9.47;4.37;;;;;;;10.28;82.31;100609.28;5092022;28;20032;-84
2023/12/28 09:14:22;;;;;;;9.27;4.17;;;;;;;10.26;82.62;100611.94;5091620;28;20047;-82
2023/12/28 09:16:48;;;;;;;13.10;5.47;;;;;;;10.28;82.33;100606.66;5090610;28;20036;-84
2023/12/28 09:19:14;;;;;;;9.82;4.18;;;;;;;10.32;82.29;100608.44;5091755;28;20020;-83
2023/12/28 09:21:40;;;;;;;11.05;4.60;;;;;;;10.32;82.88;100621.59;5105869;28;20028;-82
2023/12/28 09:24:06;;;;;;;15.82;5.80;;;;;;;10.39;82.20;100619.84;5110203;28;20044;-83
2023/12/28 09:26:32;;;;;;;12.87;5.07;;;;;;;10.44;82.41;100618.13;5097758;28;20506;-82
2023/12/28 09:28:58;;;;;;;11.05;4.88;;;;;;;10.42;82.20;100630.44;5090915;28;20020;-83
2023/12/28 09:31:23;;;;;;;13.33;5.20;;;;;;;10.40;82.69;100624.25;5091693;28;20463;-83
2023/12/28 09:33:49;;;;;;;14.43;5.50;;;;;;;10.43;82.62;100627.81;5091518;28;20148;-84
2023/12/28 09:36:15;;;;;;;14.57;5.40;;;;;;;10.49;82.24;100619.06;5091802;28;20024;-81
2023/12/28 09:38:40;;;;;;;14.25;5.75;;;;;;;10.50;82.59;100627.81;5091360;28;20042;-84
2023/12/28 09:41:17;;;;;;;12.90;5.70;;;;;;;10.49;82.08;100624.31;5091561;28;20028;-82
2023/12/28 09:43:53;;;;;;;13.23;5.47;;;;;;;10.55;82.12;100632.22;5090759;28;20108;-82
2023/12/28 09:46:18;;;;;;;12.82;5.30;;;;;;;10.56;81.75;100620.81;5091006;28;20024;-81
2023/12/28 09:48:44;;;;;;;12.83;5.50;;;;;;;10.58;82.08;100615.53;5091160;28;20077;-82
2023/12/28 09:51:10;;;;;;;11.57;5.80;;;;;;;10.59;82.00;100615.53;5091201;28;20400;-83
2023/12/28 09:53:36;;;;;;;11.07;5.78;;;;;;;10.60;81.63;100622.56;5091115;28;20044;-81
2023/12/28 09:56:03;;;;;;;13.47;6.10;;;;;;;10.60;81.88;100612.03;5090979;28;20040;-81
2023/12/28 09:58:30;;;;;;;13.43;5.28;;;;;;;10.65;81.65;100613.78;5091086;28;20051;-83
2023/12/28 10:00:56;;;;;;;12.52;5.57;;;;;;;10.63;81.33;100617.31;5072333;28;20066;-82
2023/12/28 10:03:22;;;;;;;12.52;5.60;;;;;;;10.66;81.46;100626.09;5072770;28;20028;-84
2023/12/28 10:05:47;;;;;;;11.50;6.00;;;;;;;10.68;81.27;100624.31;5090837;28;20036;-82
2023/12/28 10:08:16;;;;;;;12.75;6.20;;;;;;;10.72;80.94;100633.97;5090541;28;20024;-82
2023/12/28 10:10:43;;;;;;;14.70;5.80;;;;;;;10.71;81.12;100624.31;5090792;28;20077;-83
2023/12/28 10:13:09;;;;;;;12.32;5.90;;;;;;;10.77;80.90;100624.34;5090880;28;20027;-82
2023/12/28 10:15:38;;;;;;;11.80;5.78;;;;;;;10.78;80.63;100626.09;5090436;28;20040;-83
2023/12/28 10:18:04;;;;;;;15.40;5.53;;;;;;;10.78;81.03;100615.56;5091194;28;20070;-83
2023/12/28 10:20:31;;;;;;;12.23;5.07;;;;;;;10.77;80.63;100608.56;5095142;28;20136;-82
2023/12/28 10:22:58;;;;;;;13.37;5.50;;;;;;;10.78;80.89;100615.56;5110601;28;20027;-82
2023/12/28 10:25:24;;;;;;;14.13;5.38;;;;;;;10.84;80.61;100605.03;5097713;28;20136;-82
2023/12/28 10:27:53;;;;;;;11.50;5.60;;;;;;;10.80;80.37;100613.81;5090003;28;20092;-82
2023/12/28 10:30:20;;;;;;;11.60;5.30;;;;;;;10.87;80.36;100614.69;5090141;28;20092;-83
2023/12/28 10:32:45;;;;;;;15.38;5.82;;;;;;;10.89;80.47;100608.53;5090427;28;20067;-81
2023/12/28 10:35:11;;;;;;;12.53;6.07;;;;;;;10.94;80.33;100611.19;5090620;28;20444;-83
2023/12/28 10:37:41;;;;;;;14.83;6.50;;;;;;;10.98;79.43;100604.16;5090237;28;20024;-81
2023/12/28 10:40:07;;;;;;;12.48;6.93;;;;;;;11.09;79.28;100593.59;5090314;28;20069;-81
2023/12/28 10:42:43;;;;;;;12.55;5.20;;;;;;;11.06;79.13;100592.72;5089737;28;20519;-82
2023/12/28 10:45:10;;;;;;;12.23;5.78;;;;;;;11.06;79.47;100600.63;5089442;28;20180;-81
2023/12/28 10:47:38;;;;;;;13.20;5.77;;;;;;;11.11;79.26;100591.84;5090069;28;20491;-81
2023/12/28 10:50:05;;;;;;;16.02;6.20;;;;;;;11.10;78.94;100588.34;5090114;28;20024;-83
2023/12/28 10:52:32;;;;;;;15.38;6.03;;;;;;;11.19;78.48;100600.63;5090205;28;20034;-83
2023/12/28 10:55:06;;;;;;;11.18;4.43;;;;;;;11.03;78.89;100592.72;5089978;28;20479;-82
2023/12/28 10:58:04;;;;;;;10.75;5.20;;;;;;;11.14;78.43;100576.91;5089831;28;20020;-82
2023/12/28 11:00:36;;;;;;;13.07;5.43;;;;;;;11.15;78.54;100578.66;5089177;28;20040;-83
2023/12/28 11:03:08;;;;;;;13.73;5.32;;;;;;;11.16;77.80;100577.78;5089663;28;20028;-82
2023/12/28 11:05:35;;;;;;;9.88;5.00;;;;;;;11.21;78.13;100585.69;5090046;28;20028;-82
2023/12/28 11:08:03;;;;;;;12.45;5.05;;;;;;;11.24;77.79;100587.44;5089546;28;20090;-82
2023/12/28 11:10:29;;;;;;;13.23;5.05;;;;;;;11.24;77.46;100585.69;5089894;28;20153;-83
2023/12/28 11:12:56;;;;;;;11.80;4.67;;;;;;;11.24;77.71;100605.91;5089814;28;20028;-81
2023/12/28 11:15:23;;;;;;;16.02;5.85;;;;;;;11.30;77.44;100597.97;5089767;28;20020;-84
2023/12/28 11:17:49;;;;;;;14.57;4.72;;;;;;;11.36;76.36;100597.94;5089710;28;20024;-83
2023/12/28 11:20:15;;;;;;;11.73;4.70;;;;;;;11.38;76.81;100609.38;5091968;28;20514;-82